Time;durP1;ratioP1;P1;durP2;ratioP2;P2;SDS_P1;SDS_P2;PMS_P1;PMS_P2;Temp;Humidity;BMP_temperature;BMP_pressure;BME280_temperature;BME280_humidity;BME280_pressure;Samples;Min_cycle;Max_cycle;Signal;HPM_P1;HPM_P2
2021/08/25 00:01:27;;;;;;;9.55;4.95;;;16.30;92.30;;;;;;5037192;28;20119;-82
2021/08/25 00:03:52;;;;;;;6.82;4.90;;;16.30;92.50;;;;;;5037341;28;20413;-82
2021/08/25 00:06:18;;;;;;;5.97;4.38;;;16.20;92.40;;;;;;5037476;28;20033;-82
2021/08/25 00:08:44;;;;;;;7.82;4.65;;;16.20;92.40;;;;;;5055074;28;20032;-82
2021/08/25 00:11:10;;;;;;;6.53;4.68;;;16.20;92.70;;;;;;5037425;28;20175;-83
2021/08/25 00:13:36;;;;;;;7.20;4.70;;;16.20;92.70;;;;;;5036278;28;20029;-82
2021/08/25 00:16:02;;;;;;;5.90;4.35;;;16.10;92.70;;;;;;5036719;28;20031;-83
2021/08/25 00:18:27;;;;;;;7.25;4.90;;;16.10;92.80;;;;;;5054225;28;20374;-83
2021/08/25 00:20:53;;;;;;;5.60;4.32;;;16.10;92.80;;;;;;5036924;28;20021;-82
2021/08/25 00:23:18;;;;;;;8.43;5.00;;;16.10;92.80;;;;;;5054754;28;20029;-83
2021/08/25 00:25:44;;;;;;;6.57;4.70;;;16.00;92.90;;;;;;5054519;28;20067;-83
2021/08/25 00:28:10;;;;;;;7.55;4.43;;;15.90;92.90;;;;;;5037342;28;20033;-83
2021/08/25 00:30:35;;;;;;;6.70;4.90;;;15.90;93.10;;;;;;5054115;28;20021;-83
2021/08/25 00:33:01;;;;;;;7.50;4.82;;;15.80;93.10;;;;;;5054362;28;20070;-83
2021/08/25 00:35:27;;;;;;;7.25;5.15;;;15.80;93.20;;;;;;5036467;28;20029;-83
2021/08/25 00:37:52;;;;;;;7.03;4.97;;;15.80;93.30;;;;;;5037167;28;20035;-83
2021/08/25 00:40:18;;;;;;;7.03;5.13;;;15.80;93.30;;;;;;5036533;28;20048;-83
2021/08/25 00:42:44;;;;;;;6.65;4.35;;;15.80;93.30;;;;;;5053777;28;20029;-82
2021/08/25 00:45:10;;;;;;;8.63;5.18;;;15.80;93.30;;;;;;5054318;28;20429;-82
2021/08/25 00:47:37;;;;;;;7.20;5.35;;;15.80;93.30;;;;;;5036279;28;20028;-82
2021/08/25 00:50:04;;;;;;;8.02;4.97;;;15.80;93.40;;;;;;5036638;28;20032;-82
2021/08/25 00:52:30;;;;;;;9.82;4.82;;;15.80;93.40;;;;;;5036066;28;20420;-82
2021/08/25 00:54:58;;;;;;;6.50;4.90;;;15.80;93.40;;;;;;5036202;28;20040;-83
2021/08/25 00:57:23;;;;;;;9.55;5.28;;;15.80;93.40;;;;;;5053799;28;20033;-83
2021/08/25 00:59:49;;;;;;;6.78;5.05;;;15.70;93.40;;;;;;5036843;28;20025;-83
2021/08/25 01:02:20;;;;;;;8.90;4.93;;;15.60;93.50;;;;;;5036610;28;20036;-83
2021/08/25 01:04:46;;;;;;;7.57;5.15;;;15.60;93.60;;;;;;5053672;28;20078;-83
2021/08/25 01:07:16;;;;;;;9.30;5.15;;;15.60;93.50;;;;;;5053959;28;20107;-83
2021/08/25 01:09:42;;;;;;;10.07;5.53;;;15.60;93.50;;;;;;5053607;28;20025;-84
2021/08/25 01:12:09;;;;;;;7.70;5.18;;;15.60;93.60;;;;;;5036813;28;20032;-84
2021/08/25 01:14:35;;;;;;;7.70;4.85;;;15.50;93.60;;;;;;5053136;28;20040;-84
2021/08/25 01:17:03;;;;;;;7.68;5.18;;;15.50;93.70;;;;;;5053725;28;20501;-84
2021/08/25 01:19:32;;;;;;;8.13;5.55;;;15.50;93.70;;;;;;5035662;28;20021;-83
2021/08/25 01:21:58;;;;;;;7.10;5.13;;;15.50;93.70;;;;;;5053176;28;20528;-83
2021/08/25 01:24:24;;;;;;;8.00;5.60;;;15.50;93.90;;;;;;5036064;28;20049;-81
2021/08/25 01:26:52;;;;;;;6.80;5.53;;;15.50;93.80;;;;;;5036135;28;20478;-83
2021/08/25 01:29:30;;;;;;;7.25;5.55;;;15.40;93.80;;;;;;5036785;28;20063;-83
2021/08/25 01:31:56;;;;;;;7.82;5.10;;;15.40;93.80;;;;;;5036433;28;20037;-82
2021/08/25 01:34:21;;;;;;;7.82;5.03;;;15.40;93.80;;;;;;5053660;28;20033;-81
2021/08/25 01:36:54;;;;;;;8.85;5.30;;;15.40;93.80;;;;;;5035651;28;20017;-82
2021/08/25 01:39:21;;;;;;;7.10;5.20;;;15.40;93.90;;;;;;5036058;28;20025;-82
2021/08/25 01:41:48;;;;;;;7.72;5.35;;;15.40;93.90;;;;;;5035587;28;20021;-81
2021/08/25 01:44:13;;;;;;;7.78;4.90;;;15.40;93.90;;;;;;5036191;28;20040;-82
2021/08/25 01:46:41;;;;;;;7.40;4.90;;;15.40;93.90;;;;;;5053060;28;20029;-83
2021/08/25 01:49:15;;;;;;;5.93;4.78;;;15.30;94.00;;;;;;5036237;28;20033;-82
2021/08/25 01:51:41;;;;;;;8.38;5.28;;;15.30;93.90;;;;;;5053128;28;20033;-82
2021/08/25 01:54:08;;;;;;;7.30;5.05;;;15.30;94.10;;;;;;5035890;28;20539;-82
2021/08/25 01:56:34;;;;;;;7.25;4.93;;;15.30;94.10;;;;;;5035296;28;20071;-82
2021/08/25 01:59:02;;;;;;;6.93;4.75;;;15.30;94.10;;;;;;5036224;28;20025;-83
2021/08/25 02:01:28;;;;;;;6.07;4.95;;;15.30;94.20;;;;;;5035447;28;20032;-82
2021/08/25 02:03:54;;;;;;;7.13;4.93;;;15.30;94.10;;;;;;5035917;28;20124;-82
2021/08/25 02:06:20;;;;;;;7.13;4.82;;;15.20;94.10;;;;;;5035863;28;20061;-83
2021/08/25 02:08:46;;;;;;;8.30;5.25;;;15.20;94.20;;;;;;5053077;28;20309;-82
2021/08/25 02:11:11;;;;;;;7.28;4.78;;;15.20;94.20;;;;;;5053401;28;20587;-82
2021/08/25 02:13:37;;;;;;;7.70;4.97;;;15.20;94.50;;;;;;5052950;28;20021;-82
2021/08/25 02:16:03;;;;;;;6.55;4.53;;;15.20;94.10;;;;;;5036015;28;20025;-82
2021/08/25 02:18:28;;;;;;;8.02;5.22;;;15.20;94.10;;;;;;5052939;28;20382;-82
2021/08/25 02:20:54;;;;;;;7.70;5.15;;;15.20;94.30;;;;;;5035715;28;20025;-81
2021/08/25 02:23:20;;;;;;;8.57;5.53;;;15.20;94.30;;;;;;5035738;28;20236;-81
2021/08/25 02:25:45;;;;;;;8.27;5.38;;;15.10;94.20;;;;;;5035386;28;20048;-81
2021/08/25 02:28:11;;;;;;;7.53;4.82;;;15.10;94.20;;;;;;5035662;28;20029;-81
2021/08/25 02:30:37;;;;;;;6.80;5.25;;;15.00;94.20;;;;;;5035363;28;20075;-82
2021/08/25 02:33:03;;;;;;;8.10;4.55;;;15.00;94.30;;;;;;5035884;28;20025;-82
2021/08/25 02:35:29;;;;;;;8.32;5.00;;;15.00;94.40;;;;;;5052883;28;20040;-82
2021/08/25 02:37:55;;;;;;;6.70;4.88;;;14.90;94.40;;;;;;5054632;28;20029;-82
2021/08/25 02:40:20;;;;;;;7.03;5.35;;;14.90;94.50;;;;;;5039135;28;20029;-81
2021/08/25 02:42:46;;;;;;;8.20;5.38;;;15.00;94.50;;;;;;5055827;28;20059;-81
2021/08/25 02:45:12;;;;;;;10.10;5.13;;;14.90;94.50;;;;;;5056519;28;20035;-81
2021/08/25 02:47:37;;;;;;;7.40;5.13;;;15.00;94.60;;;;;;5038352;28;20040;-81
2021/08/25 02:50:05;;;;;;;7.43;5.07;;;14.90;94.40;;;;;;5038847;28;20025;-80
2021/08/25 02:52:30;;;;;;;8.05;5.40;;;15.00;94.50;;;;;;5038067;28;20220;-80
2021/08/25 02:54:56;;;;;;;8.82;4.82;;;15.00;94.60;;;;;;5038445;28;20060;-80
2021/08/25 02:57:21;;;;;;;7.63;5.68;;;15.00;94.60;;;;;;5056157;28;20071;-81
2021/08/25 02:59:47;;;;;;;8.45;5.38;;;15.00;94.60;;;;;;5038017;28;20032;-81
2021/08/25 03:02:13;;;;;;;8.02;5.30;;;15.00;94.80;;;;;;5056031;28;20028;-81
2021/08/25 03:04:38;;;;;;;7.57;5.57;;;14.90;94.40;;;;;;5037772;28;20397;-81
2021/08/25 03:07:04;;;;;;;7.68;5.32;;;15.00;94.50;;;;;;5038625;28;20032;-81
2021/08/25 03:09:29;;;;;;;7.28;5.10;;;14.90;94.50;;;;;;5038779;28;20055;-82
2021/08/25 03:11:56;;;;;;;6.93;5.07;;;14.90;94.70;;;;;;5055926;28;20036;-82
2021/08/25 03:14:21;;;;;;;8.27;5.10;;;14.90;94.60;;;;;;5038514;28;20029;-82
2021/08/25 03:16:47;;;;;;;8.02;5.10;;;14.90;94.60;;;;;;5037951;28;20025;-82
2021/08/25 03:19:13;;;;;;;9.98;4.82;;;14.90;94.50;;;;;;5055619;28;20053;-82
2021/08/25 03:21:41;;;;;;;7.53;5.45;;;14.90;94.50;;;;;;5037680;28;20032;-82
2021/08/25 03:24:08;;;;;;;7.38;4.95;;;14.80;94.60;;;;;;5055779;28;20033;-82
2021/08/25 03:26:34;;;;;;;8.07;5.13;;;14.80;94.60;;;;;;5037550;28;20389;-81
2021/08/25 03:28:59;;;;;;;7.82;4.97;;;14.80;94.60;;;;;;5055754;28;20029;-81
2021/08/25 03:31:25;;;;;;;8.45;5.57;;;14.70;94.70;;;;;;5055676;28;20029;-82
2021/08/25 03:33:50;;;;;;;7.10;5.43;;;14.70;94.70;;;;;;5037424;28;20385;-82
2021/08/25 03:36:16;;;;;;;8.43;5.15;;;14.70;94.70;;;;;;5055919;28;20060;-82
2021/08/25 03:38:42;;;;;;;9.68;5.70;;;14.70;94.70;;;;;;5055249;28;20021;-83
2021/08/25 03:41:08;;;;;;;8.48;5.32;;;14.70;94.70;;;;;;5055524;28;20024;-83
2021/08/25 03:43:34;;;;;;;7.53;5.68;;;14.70;94.70;;;;;;5037311;28;20029;-82
2021/08/25 03:45:59;;;;;;;8.27;5.18;;;14.70;94.70;;;;;;5038264;28;20040;-82
2021/08/25 03:48:25;;;;;;;8.38;5.55;;;14.70;95.00;;;;;;5037617;28;20021;-83
2021/08/25 03:50:51;;;;;;;9.00;5.32;;;14.70;94.90;;;;;;5037182;28;20029;-83
2021/08/25 03:53:16;;;;;;;8.68;5.55;;;14.70;94.80;;;;;;5037646;28;20021;-81
2021/08/25 03:55:42;;;;;;;8.20;5.60;;;14.70;94.80;;;;;;5054770;28;20523;-82
2021/08/25 03:58:08;;;;;;;10.65;6.03;;;14.70;94.80;;;;;;5055602;28;20053;-82
2021/08/25 04:00:33;;;;;;;10.60;5.88;;;14.70;94.80;;;;;;5037390;28;20048;-81
2021/08/25 04:02:59;;;;;;;7.20;5.40;;;14.60;94.90;;;;;;5037645;28;20112;-83
2021/08/25 04:05:25;;;;;;;6.93;5.32;;;14.60;94.90;;;;;;5037266;28;20535;-83
2021/08/25 04:07:50;;;;;;;9.25;5.43;;;14.60;95.00;;;;;;5054567;28;20037;-83
2021/08/25 04:10:16;;;;;;;8.23;5.40;;;14.60;94.90;;;;;;5037561;28;20028;-83
2021/08/25 04:12:41;;;;;;;9.30;5.53;;;14.50;95.10;;;;;;5036778;28;20029;-83
2021/08/25 04:15:08;;;;;;;9.00;5.22;;;14.50;95.10;;;;;;5037561;28;20159;-83
2021/08/25 04:17:33;;;;;;;6.90;4.90;;;14.50;95.10;;;;;;5037469;28;20036;-83
2021/08/25 04:20:00;;;;;;;10.10;4.95;;;14.50;95.10;;;;;;5037804;28;20025;-83
2021/08/25 04:22:26;;;;;;;8.45;5.93;;;14.40;95.20;;;;;;5037452;28;20416;-82
2021/08/25 04:24:52;;;;;;;8.85;5.38;;;14.30;95.20;;;;;;5036477;28;20040;-81
2021/08/25 04:27:17;;;;;;;11.23;5.78;;;14.30;95.30;;;;;;5037074;28;20082;-81
2021/08/25 04:29:43;;;;;;;7.18;5.53;;;14.30;95.30;;;;;;5036853;28;20466;-81
2021/08/25 04:32:09;;;;;;;7.63;5.85;;;14.30;95.30;;;;;;5054427;28;20091;-81
2021/08/25 04:34:35;;;;;;;7.18;5.47;;;14.40;95.50;;;;;;5036579;28;20036;-82
2021/08/25 04:37:01;;;;;;;8.90;5.00;;;14.30;95.30;;;;;;5054416;28;20036;-83
2021/08/25 04:39:26;;;;;;;8.20;5.78;;;14.30;95.30;;;;;;5054627;28;20108;-82
2021/08/25 04:41:52;;;;;;;7.80;5.55;;;14.40;95.30;;;;;;5053778;28;20476;-82
2021/08/25 04:44:18;;;;;;;8.98;5.47;;;14.30;95.40;;;;;;5036005;28;20047;-83
2021/08/25 04:46:45;;;;;;;8.48;5.50;;;14.30;95.30;;;;;;5035261;28;20120;-82
2021/08/25 04:49:10;;;;;;;7.65;5.47;;;14.30;95.40;;;;;;5035641;28;20078;-82
2021/08/25 04:51:36;;;;;;;7.05;5.53;;;14.30;95.30;;;;;;5053993;28;20100;-80
2021/08/25 04:54:02;;;;;;;8.90;5.57;;;14.30;95.30;;;;;;5036548;28;20116;-82
2021/08/25 04:56:27;;;;;;;6.68;5.00;;;14.30;95.30;;;;;;5036476;28;20387;-82
2021/08/25 04:58:53;;;;;;;9.93;5.18;;;14.30;95.30;;;;;;5053719;28;20460;-82
2021/08/25 05:01:19;;;;;;;8.18;4.93;;;14.30;95.40;;;;;;5036104;28;20021;-82
2021/08/25 05:03:44;;;;;;;8.20;4.90;;;14.30;95.40;;;;;;5035494;28;20036;-82
2021/08/25 05:06:11;;;;;;;7.97;5.40;;;14.20;95.40;;;;;;5035977;28;20061;-82
2021/08/25 05:08:38;;;;;;;9.15;5.05;;;14.30;95.50;;;;;;5036387;28;20044;-82
2021/08/25 05:11:04;;;;;;;6.40;4.70;;;14.30;95.50;;;;;;5035464;28;20029;-82
2021/08/25 05:13:31;;;;;;;9.30;6.13;;;14.30;95.50;;;;;;5035438;28;20056;-82
2021/08/25 05:15:57;;;;;;;6.75;5.00;;;14.30;95.40;;;;;;5035449;28;20028;-82
2021/08/25 05:18:23;;;;;;;10.70;5.93;;;14.40;95.50;;;;;;5053673;28;20032;-82
2021/08/25 05:20:48;;;;;;;8.65;5.15;;;14.30;95.60;;;;;;5035209;28;20029;-82
2021/08/25 05:23:14;;;;;;;9.13;5.63;;;14.40;95.40;;;;;;5036405;28;20592;-83
2021/08/25 05:25:40;;;;;;;6.85;5.13;;;14.40;95.30;;;;;;5035607;28;20179;-81
2021/08/25 05:28:05;;;;;;;8.55;5.25;;;14.30;95.30;;;;;;5035785;28;20064;-82
2021/08/25 05:30:31;;;;;;;7.47;5.30;;;14.30;95.30;;;;;;5035554;28;20100;-82
2021/08/25 05:32:56;;;;;;;7.13;5.38;;;14.40;95.30;;;;;;5052873;28;20095;-82
2021/08/25 05:35:23;;;;;;;8.23;5.30;;;14.40;95.30;;;;;;5035853;28;20049;-82
2021/08/25 05:37:49;;;;;;;6.97;4.93;;;14.40;95.20;;;;;;5035630;28;20036;-82
2021/08/25 05:40:16;;;;;;;7.35;4.90;;;14.40;95.20;;;;;;5035802;28;20413;-82
2021/08/25 05:42:43;;;;;;;7.70;4.80;;;14.40;95.20;;;;;;5053448;28;20033;-80
2021/08/25 05:45:10;;;;;;;7.38;5.03;;;14.50;95.30;;;;;;5053457;28;20028;-81
2021/08/25 05:47:36;;;;;;;7.40;4.82;;;14.50;95.20;;;;;;5053457;28;20103;-82
2021/08/25 05:50:03;;;;;;;8.60;4.82;;;14.60;95.20;;;;;;5035006;28;20052;-83
2021/08/25 05:52:29;;;;;;;7.70;5.18;;;14.60;95.10;;;;;;5052770;28;20032;-83
2021/08/25 05:54:54;;;;;;;9.50;5.97;;;14.60;95.00;;;;;;5052487;28;20037;-82
2021/08/25 05:57:20;;;;;;;8.68;5.30;;;14.60;95.10;;;;;;5035048;28;20124;-82
2021/08/25 05:59:46;;;;;;;8.60;5.55;;;14.60;95.00;;;;;;5035237;28;20025;-82
2021/08/25 06:02:11;;;;;;;7.82;5.20;;;14.70;95.00;;;;;;5035904;28;20055;-83
2021/08/25 06:04:37;;;;;;;6.00;4.70;;;14.70;95.00;;;;;;5036105;28;20097;-81
2021/08/25 06:07:07;;;;;;;10.93;5.20;;;14.70;94.90;;;;;;5029668;28;20096;-81
2021/08/25 06:09:33;;;;;;;7.50;5.10;;;14.80;94.90;;;;;;5035570;28;20031;-81
2021/08/25 06:14:43;;;;;;;6.47;4.10;;;14.80;94.60;;;;;;5110469;27;20399;-82
2021/08/25 06:17:09;;;;;;;6.63;5.00;;;14.80;94.80;;;;;;5110170;28;20081;-83
2021/08/25 06:19:35;;;;;;;7.97;5.40;;;14.90;94.70;;;;;;5093991;28;20046;-84
2021/08/25 06:22:00;;;;;;;7.47;5.43;;;14.90;94.70;;;;;;5079950;28;20046;-84
2021/08/25 06:24:26;;;;;;;8.68;4.68;;;14.90;94.70;;;;;;5091603;28;20036;-82
2021/08/25 06:26:52;;;;;;;7.22;5.03;;;15.00;94.70;;;;;;5109941;28;20024;-83
2021/08/25 06:29:17;;;;;;;6.25;4.97;;;15.00;94.70;;;;;;5106015;28;20357;-84
2021/08/25 06:31:43;;;;;;;6.10;4.97;;;15.00;94.70;;;;;;5080901;28;20475;-82
2021/08/25 06:34:08;;;;;;;7.32;4.78;;;15.00;94.60;;;;;;5096613;28;20035;-82
2021/08/25 06:36:34;;;;;;;7.45;4.90;;;15.00;94.60;;;;;;5073139;28;20082;-83
2021/08/25 06:39:00;;;;;;;6.82;4.88;;;15.10;94.70;;;;;;5091129;28;20483;-84
2021/08/25 06:41:25;;;;;;;8.85;4.90;;;15.10;94.70;;;;;;5093418;28;20465;-83
2021/08/25 06:43:51;;;;;;;6.18;4.85;;;15.10;94.60;;;;;;5110391;28;20068;-80
2021/08/25 06:46:17;;;;;;;7.25;4.97;;;15.10;94.70;;;;;;5092004;28;20038;-83
2021/08/25 06:48:43;;;;;;;6.63;4.70;;;15.10;94.60;;;;;;5082428;28;20028;-82
2021/08/25 06:51:08;;;;;;;7.25;5.03;;;15.20;94.60;;;;;;5101594;28;20046;-81
2021/08/25 06:53:35;;;;;;;6.93;4.72;;;15.20;94.60;;;;;;5083505;28;20472;-82
2021/08/25 06:56:00;;;;;;;7.63;5.22;;;15.30;94.60;;;;;;5091457;28;20028;-81
2021/08/25 06:58:27;;;;;;;8.82;5.47;;;15.30;94.60;;;;;;5096051;28;20036;-81
2021/08/25 07:00:54;;;;;;;7.47;4.93;;;15.30;94.50;;;;;;5085016;28;20024;-80
2021/08/25 07:03:19;;;;;;;7.18;4.85;;;15.30;94.50;;;;;;5088652;28;20388;-81
2021/08/25 07:05:45;;;;;;;7.65;4.90;;;15.30;94.50;;;;;;5075780;28;20116;-80
2021/08/25 07:08:11;;;;;;;6.75;4.97;;;15.40;94.40;;;;;;5093795;28;20119;-81
2021/08/25 07:10:36;;;;;;;9.10;4.95;;;15.40;94.30;;;;;;5089928;28;20382;-79
2021/08/25 07:13:02;;;;;;;8.90;5.20;;;15.50;94.30;;;;;;5092565;28;20109;-80
2021/08/25 07:15:29;;;;;;;6.82;5.00;;;15.50;94.10;;;;;;5089769;28;20100;-80
2021/08/25 07:17:54;;;;;;;7.85;5.00;;;15.60;93.90;;;;;;5070972;28;20029;-79
2021/08/25 07:20:20;;;;;;;5.85;4.35;;;15.60;93.90;;;;;;5072987;28;20043;-79
2021/08/25 07:22:45;;;;;;;6.40;4.70;;;15.60;93.90;;;;;;5082922;28;20036;-79
2021/08/25 07:25:12;;;;;;;12.07;5.25;;;15.60;93.90;;;;;;5081287;28;20024;-79
2021/08/25 07:27:39;;;;;;;7.45;4.90;;;15.70;94.00;;;;;;5083582;28;20032;-79
2021/08/25 07:30:05;;;;;;;5.57;3.97;;;15.70;93.70;;;;;;5058890;28;20021;-82
2021/08/25 07:32:31;;;;;;;7.95;4.85;;;15.70;93.70;;;;;;5062147;28;20067;-82
2021/08/25 07:34:57;;;;;;;8.70;5.05;;;15.80;93.70;;;;;;5074996;28;20477;-81
2021/08/25 07:37:22;;;;;;;8.05;4.60;;;15.80;93.60;;;;;;5063916;28;20028;-81
2021/08/25 07:39:48;;;;;;;7.22;4.63;;;15.80;93.60;;;;;;5062509;28;20362;-80
2021/08/25 07:42:14;;;;;;;8.10;4.78;;;15.90;93.40;;;;;;5072570;28;20046;-83
2021/08/25 07:44:40;;;;;;;7.25;4.50;;;16.00;93.30;;;;;;5076821;28;20033;-86
2021/08/25 07:47:05;;;;;;;10.45;5.07;;;16.00;93.20;;;;;;5088357;28;20516;-86
2021/08/25 07:49:31;;;;;;;10.18;4.90;;;16.10;93.10;;;;;;5081691;28;20389;-87
2021/08/25 07:51:58;;;;;;;7.63;4.53;;;16.10;93.00;;;;;;5074760;28;20093;-87
2021/08/25 07:54:25;;;;;;;7.00;4.68;;;16.20;93.10;;;;;;5085154;28;20096;-87
2021/08/25 07:56:50;;;;;;;5.53;4.15;;;16.20;93.00;;;;;;5091225;28;20028;-86
2021/08/25 07:59:16;;;;;;;7.32;4.85;;;16.20;92.90;;;;;;5078591;28;20085;-86
2021/08/25 08:01:41;;;;;;;6.28;4.18;;;16.30;93.10;;;;;;5070851;28;20032;-85
2021/08/25 08:04:07;;;;;;;5.63;4.32;;;16.30;93.20;;;;;;5071538;28;20032;-85
2021/08/25 08:06:33;;;;;;;8.23;4.70;;;16.30;93.40;;;;;;5058270;28;20025;-85
2021/08/25 08:08:58;;;;;;;7.32;4.68;;;16.40;93.00;;;;;;5058265;28;20055;-84
2021/08/25 08:11:24;;;;;;;6.63;5.20;;;16.40;93.00;;;;;;5091842;28;20027;-87
2021/08/25 08:13:49;;;;;;;8.75;4.10;;;16.50;93.10;;;;;;5081134;28;20495;-85
2021/08/25 08:16:20;;;;;;;7.18;4.45;;;16.50;93.30;;;;;;5093550;28;20028;-85
2021/08/25 08:21:23;;;;;;;7.25;4.85;;;16.70;92.90;;;;;;5072959;28;20020;-84
2021/08/25 08:23:49;;;;;;;8.43;4.35;;;16.70;92.40;;;;;;5071910;28;20494;-87
2021/08/25 08:26:15;;;;;;;5.95;4.30;;;16.70;92.50;;;;;;5069360;28;20052;-84
2021/08/25 08:28:40;;;;;;;9.48;4.43;;;16.70;92.50;;;;;;5067140;28;20024;-89
2021/08/25 08:31:06;;;;;;;6.32;3.95;;;16.80;92.40;;;;;;5063488;28;20044;-86
2021/08/25 08:33:32;;;;;;;7.05;3.90;;;16.90;92.20;;;;;;5075723;28;20036;-85
2021/08/25 08:35:57;;;;;;;6.35;4.28;;;16.90;92.30;;;;;;5079108;28;20028;-83
2021/08/25 08:38:23;;;;;;;5.93;4.13;;;16.90;92.20;;;;;;5095510;28;20036;-85
2021/08/25 08:40:49;;;;;;;6.03;3.72;;;16.90;92.20;;;;;;5059133;28;20055;-85
2021/08/25 08:43:14;;;;;;;6.28;3.90;;;16.90;92.10;;;;;;5057178;28;20052;-84
2021/08/25 08:45:42;;;;;;;5.85;4.00;;;17.00;92.20;;;;;;5056272;28;20036;-85
2021/08/25 08:48:09;;;;;;;5.68;4.07;;;17.00;92.40;;;;;;5059775;28;20119;-84
2021/08/25 08:50:36;;;;;;;6.53;4.10;;;17.20;92.90;;;;;;5080158;28;20029;-84
2021/08/25 08:53:03;;;;;;;7.15;3.95;;;17.10;92.60;;;;;;5072096;28;20045;-84
2021/08/25 08:55:29;;;;;;;6.80;3.90;;;17.20;92.10;;;;;;5079008;28;20028;-84
2021/08/25 08:57:55;;;;;;;9.25;3.70;;;17.20;92.30;;;;;;5065008;28;20020;-86
2021/08/25 09:00:21;;;;;;;7.22;3.70;;;17.20;92.10;;;;;;5075713;28;20024;-85
2021/08/25 09:02:47;;;;;;;6.50;3.80;;;17.30;92.00;;;;;;5072595;28;20032;-83
2021/08/25 09:05:18;;;;;;;5.30;3.55;;;17.40;91.90;;;;;;5065210;28;20025;-84
2021/08/25 09:07:49;;;;;;;5.35;3.30;;;17.40;91.20;;;;;;5060341;28;20035;-84
2021/08/25 09:10:21;;;;;;;6.10;3.65;;;17.50;91.00;;;;;;5071453;28;20074;-84
2021/08/25 09:12:52;;;;;;;6.63;3.45;;;17.50;90.90;;;;;;5064919;28;20148;-83
2021/08/25 09:15:22;;;;;;;4.18;3.35;;;17.50;90.90;;;;;;5060457;28;20024;-84
2021/08/25 09:18:01;;;;;;;7.90;3.60;;;17.60;90.80;;;;;;5057775;28;20333;-85
2021/08/25 09:20:28;;;;;;;4.97;3.50;;;17.60;91.10;;;;;;5053544;28;20123;-84
2021/08/25 09:23:13;;;;;;;5.97;3.60;;;17.60;91.20;;;;;;5059323;28;20051;-83
2021/08/25 09:25:39;;;;;;;5.25;3.65;;;17.70;91.40;;;;;;5054113;28;20029;-84
2021/08/25 09:28:06;;;;;;;5.25;3.67;;;17.80;91.20;;;;;;5067039;28;20483;-84
2021/08/25 09:30:50;;;;;;;4.93;3.20;;;17.80;90.80;;;;;;5056747;28;20064;-84
2021/08/25 09:33:20;;;;;;;4.85;3.60;;;17.90;90.00;;;;;;5052576;28;20067;-85
2021/08/25 09:35:46;;;;;;;6.70;3.65;;;17.90;90.80;;;;;;5057944;28;20060;-83
2021/08/25 09:38:20;;;;;;;4.68;3.28;;;18.00;90.70;;;;;;5068429;28;20483;-84
2021/08/25 09:40:53;;;;;;;3.67;3.10;;;18.10;90.50;;;;;;5052769;28;20504;-84
2021/08/25 09:43:45;;;;;;;12.75;3.20;;;18.20;90.60;;;;;;5055201;28;20389;-84
2021/08/25 09:46:12;;;;;;;4.55;3.15;;;18.30;89.50;;;;;;5064452;28;20033;-84
2021/08/25 09:48:59;;;;;;;4.88;3.10;;;18.30;89.20;;;;;;5059446;28;20082;-84
2021/08/25 09:51:26;;;;;;;5.53;3.42;;;18.40;90.20;;;;;;5073629;28;20016;-84
2021/08/25 09:54:05;;;;;;;4.47;2.88;;;18.30;89.60;;;;;;5056849;28;20457;-83
2021/08/25 09:56:33;;;;;;;5.60;3.13;;;18.40;88.80;;;;;;5052673;28;20454;-84
2021/08/25 09:59:01;;;;;;;4.45;3.13;;;18.40;88.70;;;;;;5062203;28;20032;-84
2021/08/25 10:01:27;;;;;;;6.88;3.58;;;18.50;89.00;;;;;;5066674;28;20059;-84
2021/08/25 10:03:54;;;;;;;5.55;3.20;;;18.70;89.80;;;;;;5052811;28;20048;-84
2021/08/25 10:06:23;;;;;;;4.53;3.00;;;18.70;88.50;;;;;;5063819;28;20029;-84
2021/08/25 10:08:49;;;;;;;3.78;2.85;;;18.70;88.30;;;;;;5071126;28;20082;-83
2021/08/25 10:11:17;;;;;;;4.38;3.10;;;18.80;89.00;;;;;;5057238;28;20429;-84
2021/08/25 10:13:43;;;;;;;4.43;2.70;;;18.80;87.60;;;;;;5044754;28;20088;-85
2021/08/25 10:16:12;;;;;;;4.72;2.90;;;18.80;87.60;;;;;;5034632;28;20021;-84
2021/08/25 10:18:38;;;;;;;7.18;2.97;;;18.80;85.40;;;;;;5031997;28;20028;-84
2021/08/25 10:21:29;;;;;;;4.32;3.00;;;18.90;85.50;;;;;;5031960;28;20111;-85
2021/08/25 10:23:59;;;;;;;5.82;3.10;;;18.90;84.50;;;;;;5028491;28;20030;-84
2021/08/25 10:26:26;;;;;;;4.50;2.88;;;19.00;87.90;;;;;;5041039;28;20051;-85
2021/08/25 10:29:09;;;;;;;5.40;3.05;;;19.00;86.00;;;;;;5031889;28;20120;-84
2021/08/25 10:31:59;;;;;;;4.10;2.83;;;19.00;84.10;;;;;;5032205;28;20557;-84
2021/08/25 10:34:27;;;;;;;7.45;3.50;;;19.00;84.10;;;;;;5021359;28;20128;-84
2021/08/25 10:37:12;;;;;;;3.78;2.83;;;19.00;85.70;;;;;;5031899;28;20034;-84
2021/08/25 10:39:42;;;;;;;5.60;2.83;;;19.20;84.00;;;;;;5041875;28;20112;-84
2021/08/25 10:42:09;;;;;;;3.90;3.08;;;19.20;83.40;;;;;;5067463;28;20473;-84
2021/08/25 10:44:40;;;;;;;4.95;2.55;;;19.20;83.20;;;;;;5042368;28;20038;-84
2021/08/25 10:47:10;;;;;;;4.95;2.75;;;19.30;82.50;;;;;;5048209;28;20509;-84
2021/08/25 10:49:46;;;;;;;4.82;3.28;;;19.30;82.90;;;;;;5032620;28;20041;-83
2021/08/25 10:52:15;;;;;;;4.95;2.85;;;19.40;79.70;;;;;;5042351;28;20022;-84
2021/08/25 10:54:42;;;;;;;4.90;2.63;;;19.50;79.40;;;;;;5031869;28;20091;-84
2021/08/25 10:57:13;;;;;;;4.43;2.70;;;19.70;81.00;;;;;;5038652;28;20021;-83
2021/08/25 10:59:40;;;;;;;4.75;2.63;;;19.70;73.40;;;;;;5032904;28;20061;-84
2021/08/25 11:02:06;;;;;;;3.30;2.20;;;19.70;74.40;;;;;;5035566;28;20037;-86
2021/08/25 11:04:32;;;;;;;4.43;2.58;;;19.80;72.50;;;;;;5053150;28;20367;-85
2021/08/25 11:07:02;;;;;;;3.70;2.80;;;20.00;73.90;;;;;;5036034;28;20021;-85
2021/08/25 11:09:47;;;;;;;5.13;2.13;;;20.00;71.40;;;;;;5035497;28;20052;-85
2021/08/25 11:12:23;;;;;;;4.45;2.42;;;20.00;72.50;;;;;;5037658;28;20082;-84
2021/08/25 11:14:53;;;;;;;6.18;2.40;;;20.10;72.40;;;;;;5065900;28;20045;-83
2021/08/25 11:17:28;;;;;;;5.88;2.60;;;20.20;72.50;;;;;;5035115;28;20029;-83
2021/08/25 11:19:57;;;;;;;6.43;2.33;;;20.30;74.00;;;;;;5032154;28;20026;-84
2021/08/25 11:22:35;;;;;;;3.92;2.67;;;20.50;74.90;;;;;;5035637;28;20025;-84
2021/08/25 11:25:12;;;;;;;5.85;2.60;;;20.70;75.30;;;;;;5034557;28;20032;-84
2021/08/25 11:27:39;;;;;;;5.22;2.45;;;20.70;72.00;;;;;;5038273;28;20036;-85
2021/08/25 11:30:07;;;;;;;4.97;2.67;;;20.80;70.40;;;;;;5034954;28;20053;-83
2021/08/25 11:32:41;;;;;;;4.75;2.50;;;20.80;68.30;;;;;;5034220;28;20028;-84
2021/08/25 11:35:08;;;;;;;4.65;2.20;;;20.80;68.70;;;;;;5040828;28;20032;-84
2021/08/25 11:37:33;;;;;;;2.80;2.28;;;20.70;70.10;;;;;;5036942;28;20036;-84
2021/08/25 11:40:03;;;;;;;4.88;2.40;;;20.70;69.50;;;;;;5040140;28;20029;-84
2021/08/25 11:42:33;;;;;;;4.82;2.10;;;20.80;69.00;;;;;;5033933;28;20072;-84
2021/08/25 11:44:59;;;;;;;5.35;2.35;;;20.90;66.70;;;;;;5033702;28;20488;-83
2021/08/25 11:47:26;;;;;;;3.75;2.17;;;20.90;68.70;;;;;;5033956;28;20028;-84
2021/08/25 11:49:56;;;;;;;4.10;2.30;;;21.00;68.90;;;;;;5032611;28;20028;-84
2021/08/25 11:52:34;;;;;;;4.07;2.83;;;21.00;70.10;;;;;;5033717;28;20025;-84
2021/08/25 11:55:04;;;;;;;4.07;2.33;;;21.00;68.20;;;;;;5033156;28;20514;-84
2021/08/25 11:57:59;;;;;;;3.08;2.22;;;21.00;64.30;;;;;;5033513;28;20030;-83
2021/08/25 12:00:39;;;;;;;5.82;2.47;;;21.20;66.30;;;;;;5015076;28;20040;-83
2021/08/25 12:03:07;;;;;;;4.18;2.65;;;21.30;65.90;;;;;;5032265;28;20080;-82
2021/08/25 12:05:35;;;;;;;3.45;2.17;;;21.50;68.00;;;;;;5038939;28;20462;-83
2021/08/25 12:08:08;;;;;;;4.45;2.40;;;21.60;64.60;;;;;;5044886;28;20036;-83
2021/08/25 12:10:40;;;;;;;3.92;2.38;;;21.80;67.30;;;;;;5038548;28;20060;-83
2021/08/25 12:13:10;;;;;;;3.95;2.53;;;22.00;67.20;;;;;;5040214;28;20054;-83
2021/08/25 12:15:47;;;;;;;3.80;2.20;;;22.30;64.00;;;;;;5049910;28;20032;-83
2021/08/25 12:18:18;;;;;;;4.18;2.53;;;22.60;61.30;;;;;;5059362;28;20123;-83
2021/08/25 12:20:46;;;;;;;3.27;2.30;;;22.80;61.10;;;;;;5050191;28;20025;-83
2021/08/25 12:23:15;;;;;;;3.45;2.20;;;23.00;60.50;;;;;;5060274;28;20278;-83
2021/08/25 12:25:42;;;;;;;4.80;2.75;;;22.80;58.80;;;;;;5028200;28;20029;-85
2021/08/25 12:28:13;;;;;;;6.40;2.35;;;22.90;57.30;;;;;;5046803;28;20048;-85
2021/08/25 12:30:41;;;;;;;4.15;2.10;;;23.10;57.80;;;;;;5033830;28;20018;-86
2021/08/25 12:33:08;;;;;;;4.82;2.40;;;23.30;56.50;;;;;;5033117;28;20080;-88
2021/08/25 12:35:36;;;;;;;3.92;2.20;;;23.40;56.90;;;;;;5034927;28;20033;-88
2021/08/25 12:38:04;;;;;;;3.83;2.40;;;23.40;57.20;;;;;;5033992;28;20051;-89
2021/08/25 12:40:31;;;;;;;4.40;2.50;;;23.60;58.10;;;;;;5034282;28;20049;-87
2021/08/25 12:42:58;;;;;;;5.45;2.38;;;23.70;58.20;;;;;;5032040;28;20041;-88
2021/08/25 12:45:25;;;;;;;4.72;2.30;;;23.50;55.40;;;;;;5032927;28;20067;-85
2021/08/25 12:47:53;;;;;;;5.68;2.28;;;23.40;55.20;;;;;;5052381;28;20032;-92
2021/08/25 12:50:20;;;;;;;3.67;2.30;;;23.10;54.20;;;;;;5048277;28;20022;-85
2021/08/25 12:52:46;;;;;;;2.90;1.92;;;22.90;55.80;;;;;;5032421;28;20033;-85